ニューヨーク/JFK の空港の天気 - METARとTAF

ジョン・F・ケネディ国際空港 ( KJFK / JFK ) - アメリカ合衆国 ニューヨーク州ニューヨーク
飛行場実況気象(Metar)
観測時間09/24 07:51 EDT (09/24 11:51 UTC)
風向・風速北 4m/s
視程10km以上
天気現象
なし
気温22.8℃
湿度64%
気圧1018.6hPa
METARKJFK 241151Z 36007KT 10SM CLR 23/16 A3008 RMK AO2 SLP186 T02280156 10228 20183 53008
過去の天気等 Google飛行場航空写真 Wunderground天気予報

過去48時間のMETAR

飛行場予報(TAF)
発表時間: 9/24 07:20 EDT (9/24 11:20 UTC)
予報対象時間: 24日8時 EDT ~ 25日14時 EDT
風向・風速不定 2m/s
視程10km以上
なし
24日10時 EDT から
風向・風速北北東 4m/s
視程10km以上
なし
24日12時 EDT から
風向・風速不定 3m/s
視程10km以上
なし
24日14時 EDT から
風向・風速南南東 4m/s
視程10km以上
なし
24日20時 EDT から
風向・風速不定 2m/s
視程10km以上
なし
25日10時 EDT から
風向・風速東北東 3m/s
視程10km以上
なし
KJFK 241120Z 2412/2518 VRB04KT P6SM SKC
FM241400 03007KT P6SM SKC
FM241600 VRB05KT P6SM SKC
FM241800 16008KT P6SM SKC
FM250000 VRB03KT P6SM SKC
FM251400 07006KT P6SM SKC